sensor_id;sensor_type;location;lat;lon;timestamp;P1;durP1;ratioP1;P2;durP2;ratioP2
68479;SDS011;55469;48.934;12.050;2023-04-03T00:00:41;2.60;;;2.40;;
68479;SDS011;55469;48.934;12.050;2023-04-03T00:03:07;2.47;;;2.28;;
68479;SDS011;55469;48.934;12.050;2023-04-03T00:05:33;2.35;;;2.15;;
68479;SDS011;55469;48.934;12.050;2023-04-03T00:07:59;2.38;;;2.10;;
68479;SDS011;55469;48.934;12.050;2023-04-03T00:10:26;2.42;;;2.10;;
68479;SDS011;55469;48.934;12.050;2023-04-03T00:12:53;2.38;;;2.10;;
68479;SDS011;55469;48.934;12.050;2023-04-03T00:15:19;2.38;;;2.17;;
68479;SDS011;55469;48.934;12.050;2023-04-03T00:17:44;2.38;;;2.00;;
68479;SDS011;55469;48.934;12.050;2023-04-03T00:20:10;2.25;;;2.05;;
68479;SDS011;55469;48.934;12.050;2023-04-03T00:22:36;2.28;;;2.08;;
68479;SDS011;55469;48.934;12.050;2023-04-03T00:25:02;2.55;;;2.35;;
68479;SDS011;55469;48.934;12.050;2023-04-03T00:27:29;2.53;;;1.90;;
68479;SDS011;55469;48.934;12.050;2023-04-03T00:29:55;2.70;;;2.33;;
68479;SDS011;55469;48.934;12.050;2023-04-03T00:32:20;2.15;;;1.90;;
68479;SDS011;55469;48.934;12.050;2023-04-03T00:34:46;2.47;;;2.28;;
68479;SDS011;55469;48.934;12.050;2023-04-03T00:37:15;2.20;;;2.00;;
68479;SDS011;55469;48.934;12.050;2023-04-03T00:39:40;2.90;;;1.98;;
68479;SDS011;55469;48.934;12.050;2023-04-03T00:42:06;2.17;;;1.98;;
68479;SDS011;55469;48.934;12.050;2023-04-03T00:46:58;2.10;;;1.90;;
68479;SDS011;55469;48.934;12.050;2023-04-03T00:49:24;2.05;;;1.88;;
68479;SDS011;55469;48.934;12.050;2023-04-03T00:51:50;2.88;;;2.05;;
68479;SDS011;55469;48.934;12.050;2023-04-03T00:54:17;2.83;;;2.08;;
68479;SDS011;55469;48.934;12.050;2023-04-03T00:56:43;2.85;;;2.00;;
68479;SDS011;55469;48.934;12.050;2023-04-03T00:59:18;1.98;;;1.88;;
68479;SDS011;55469;48.934;12.050;2023-04-03T01:01:58;2.58;;;2.17;;
68479;SDS011;55469;48.934;12.050;2023-04-03T01:04:35;2.75;;;2.10;;
68479;SDS011;55469;48.934;12.050;2023-04-03T01:07:05;2.88;;;2.20;;
68479;SDS011;55469;48.934;12.050;2023-04-03T01:09:37;2.45;;;2.10;;
68479;SDS011;55469;48.934;12.050;2023-04-03T01:14:48;2.50;;;2.10;;
68479;SDS011;55469;48.934;12.050;2023-04-03T01:22:56;2.60;;;1.88;;
68479;SDS011;55469;48.934;12.050;2023-04-03T01:25:34;2.20;;;1.75;;
68479;SDS011;55469;48.934;12.050;2023-04-03T01:28:07;2.90;;;2.00;;
68479;SDS011;55469;48.934;12.050;2023-04-03T01:30:39;3.05;;;2.10;;
68479;SDS011;55469;48.934;12.050;2023-04-03T01:33:28;2.17;;;1.90;;
68479;SDS011;55469;48.934;12.050;2023-04-03T01:35:55;2.13;;;1.92;;
68479;SDS011;55469;48.934;12.050;2023-04-03T01:38:20;2.20;;;2.00;;
68479;SDS011;55469;48.934;12.050;2023-04-03T01:40:46;2.20;;;2.00;;
68479;SDS011;55469;48.934;12.050;2023-04-03T01:43:12;1.90;;;1.80;;
68479;SDS011;55469;48.934;12.050;2023-04-03T01:45:38;2.00;;;1.80;;
68479;SDS011;55469;48.934;12.050;2023-04-03T01:48:04;2.20;;;1.90;;
68479;SDS011;55469;48.934;12.050;2023-04-03T01:50:30;1.90;;;1.80;;
68479;SDS011;55469;48.934;12.050;2023-04-03T01:52:57;2.30;;;2.10;;
68479;SDS011;55469;48.934;12.050;2023-04-03T01:55:22;2.30;;;1.80;;
68479;SDS011;55469;48.934;12.050;2023-04-03T01:57:48;2.10;;;1.90;;
68479;SDS011;55469;48.934;12.050;2023-04-03T02:00:14;2.13;;;1.77;;
68479;SDS011;55469;48.934;12.050;2023-04-03T02:02:40;2.42;;;2.05;;
68479;SDS011;55469;48.934;12.050;2023-04-03T02:05:06;2.55;;;2.00;;
68479;SDS011;55469;48.934;12.050;2023-04-03T02:07:32;2.88;;;2.10;;
68479;SDS011;55469;48.934;12.050;2023-04-03T02:09:58;1.98;;;1.80;;
68479;SDS011;55469;48.934;12.050;2023-04-03T02:12:23;2.78;;;1.92;;
68479;SDS011;55469;48.934;12.050;2023-04-03T02:14:49;2.53;;;2.00;;
68479;SDS011;55469;48.934;12.050;2023-04-03T02:17:15;2.33;;;2.00;;
68479;SDS011;55469;48.934;12.050;2023-04-03T02:19:41;1.98;;;1.88;;
68479;SDS011;55469;48.934;12.050;2023-04-03T02:22:06;1.92;;;1.73;;
68479;SDS011;55469;48.934;12.050;2023-04-03T02:24:32;2.10;;;1.90;;
68479;SDS011;55469;48.934;12.050;2023-04-03T02:26:58;2.00;;;1.80;;
68479;SDS011;55469;48.934;12.050;2023-04-03T02:29:24;2.10;;;1.90;;
68479;SDS011;55469;48.934;12.050;2023-04-03T02:31:50;1.98;;;1.80;;
68479;SDS011;55469;48.934;12.050;2023-04-03T02:34:16;2.10;;;1.88;;
68479;SDS011;55469;48.934;12.050;2023-04-03T02:36:42;2.38;;;2.10;;
68479;SDS011;55469;48.934;12.050;2023-04-03T02:39:09;2.95;;;2.25;;
68479;SDS011;55469;48.934;12.050;2023-04-03T02:41:35;2.03;;;1.83;;
68479;SDS011;55469;48.934;12.050;2023-04-03T02:44:01;2.10;;;1.90;;
68479;SDS011;55469;48.934;12.050;2023-04-03T02:46:28;2.30;;;2.10;;
68479;SDS011;55469;48.934;12.050;2023-04-03T02:48:54;1.70;;;1.60;;
68479;SDS011;55469;48.934;12.050;2023-04-03T02:51:21;2.00;;;1.80;;
68479;SDS011;55469;48.934;12.050;2023-04-03T02:53:48;2.50;;;1.85;;
68479;SDS011;55469;48.934;12.050;2023-04-03T02:56:14;2.10;;;1.80;;
68479;SDS011;55469;48.934;12.050;2023-04-03T02:58:43;2.13;;;1.85;;
68479;SDS011;55469;48.934;12.050;2023-04-03T03:01:10;1.88;;;1.60;;
68479;SDS011;55469;48.934;12.050;2023-04-03T03:03:36;2.15;;;1.80;;
68479;SDS011;55469;48.934;12.050;2023-04-03T03:06:06;3.85;;;1.90;;
68479;SDS011;55469;48.934;12.050;2023-04-03T03:08:36;2.03;;;1.83;;
68479;SDS011;55469;48.934;12.050;2023-04-03T03:11:02;2.42;;;2.22;;
68479;SDS011;55469;48.934;12.050;2023-04-03T03:13:28;2.08;;;1.95;;
68479;SDS011;55469;48.934;12.050;2023-04-03T03:15:55;2.45;;;1.77;;
68479;SDS011;55469;48.934;12.050;2023-04-03T03:18:22;2.38;;;2.10;;
68479;SDS011;55469;48.934;12.050;2023-04-03T03:20:52;2.20;;;1.98;;
68479;SDS011;55469;48.934;12.050;2023-04-03T03:23:19;2.20;;;2.00;;
68479;SDS011;55469;48.934;12.050;2023-04-03T03:25:46;2.20;;;1.98;;
68479;SDS011;55469;48.934;12.050;2023-04-03T03:28:12;3.83;;;2.10;;
68479;SDS011;55469;48.934;12.050;2023-04-03T03:30:37;2.35;;;1.85;;
68479;SDS011;55469;48.934;12.050;2023-04-03T03:33:03;2.08;;;1.90;;
68479;SDS011;55469;48.934;12.050;2023-04-03T03:35:29;2.40;;;1.90;;
68479;SDS011;55469;48.934;12.050;2023-04-03T03:37:54;2.47;;;2.20;;
68479;SDS011;55469;48.934;12.050;2023-04-03T03:40:20;2.53;;;1.80;;
68479;SDS011;55469;48.934;12.050;2023-04-03T03:42:46;2.03;;;1.80;;
68479;SDS011;55469;48.934;12.050;2023-04-03T03:45:12;2.35;;;1.80;;
68479;SDS011;55469;48.934;12.050;2023-04-03T03:47:37;2.10;;;1.90;;
68479;SDS011;55469;48.934;12.050;2023-04-03T03:50:03;2.20;;;1.90;;
68479;SDS011;55469;48.934;12.050;2023-04-03T03:52:30;3.55;;;2.50;;
68479;SDS011;55469;48.934;12.050;2023-04-03T03:54:56;2.80;;;2.08;;
68479;SDS011;55469;48.934;12.050;2023-04-03T03:57:21;2.83;;;2.08;;
68479;SDS011;55469;48.934;12.050;2023-04-03T03:59:47;2.75;;;2.20;;
68479;SDS011;55469;48.934;12.050;2023-04-03T04:02:14;2.03;;;1.88;;
68479;SDS011;55469;48.934;12.050;2023-04-03T04:04:40;2.13;;;1.90;;
68479;SDS011;55469;48.934;12.050;2023-04-03T04:07:08;2.42;;;1.80;;
68479;SDS011;55469;48.934;12.050;2023-04-03T04:09:34;2.17;;;1.90;;
68479;SDS011;55469;48.934;12.050;2023-04-03T04:12:00;2.40;;;2.08;;
68479;SDS011;55469;48.934;12.050;2023-04-03T04:14:25;2.97;;;2.20;;
68479;SDS011;55469;48.934;12.050;2023-04-03T04:16:51;3.15;;;2.13;;
68479;SDS011;55469;48.934;12.050;2023-04-03T04:19:17;2.45;;;2.15;;
68479;SDS011;55469;48.934;12.050;2023-04-03T04:21:42;2.22;;;1.90;;
68479;SDS011;55469;48.934;12.050;2023-04-03T04:24:08;2.92;;;2.10;;
68479;SDS011;55469;48.934;12.050;2023-04-03T04:26:34;2.60;;;1.92;;
68479;SDS011;55469;48.934;12.050;2023-04-03T04:29:00;2.05;;;1.85;;
68479;SDS011;55469;48.934;12.050;2023-04-03T04:31:26;2.13;;;1.88;;
68479;SDS011;55469;48.934;12.050;2023-04-03T04:33:52;2.72;;;2.00;;
68479;SDS011;55469;48.934;12.050;2023-04-03T04:36:18;2.25;;;2.05;;
68479;SDS011;55469;48.934;12.050;2023-04-03T04:38:44;2.17;;;1.95;;
68479;SDS011;55469;48.934;12.050;2023-04-03T04:41:10;2.47;;;1.80;;
68479;SDS011;55469;48.934;12.050;2023-04-03T04:43:36;2.63;;;2.10;;
68479;SDS011;55469;48.934;12.050;2023-04-03T04:46:05;2.97;;;1.63;;
68479;SDS011;55469;48.934;12.050;2023-04-03T04:48:34;2.45;;;2.25;;
68479;SDS011;55469;48.934;12.050;2023-04-03T04:51:00;2.15;;;1.90;;
68479;SDS011;55469;48.934;12.050;2023-04-03T04:53:27;1.80;;;1.65;;
68479;SDS011;55469;48.934;12.050;2023-04-03T04:55:53;1.88;;;1.70;;
68479;SDS011;55469;48.934;12.050;2023-04-03T04:58:19;2.10;;;1.90;;
68479;SDS011;55469;48.934;12.050;2023-04-03T05:00:45;2.72;;;2.10;;
68479;SDS011;55469;48.934;12.050;2023-04-03T05:03:11;1.85;;;1.67;;
68479;SDS011;55469;48.934;12.050;2023-04-03T05:05:37;1.80;;;1.65;;
68479;SDS011;55469;48.934;12.050;2023-04-03T05:08:03;1.83;;;1.52;;
68479;SDS011;55469;48.934;12.050;2023-04-03T05:10:31;2.20;;;2.00;;
68479;SDS011;55469;48.934;12.050;2023-04-03T05:12:57;2.20;;;1.90;;
68479;SDS011;55469;48.934;12.050;2023-04-03T05:15:23;2.20;;;1.92;;
68479;SDS011;55469;48.934;12.050;2023-04-03T05:17:49;1.85;;;1.75;;
68479;SDS011;55469;48.934;12.050;2023-04-03T05:20:15;3.30;;;2.05;;
68479;SDS011;55469;48.934;12.050;2023-04-03T05:22:41;2.17;;;1.90;;
68479;SDS011;55469;48.934;12.050;2023-04-03T05:25:07;3.15;;;2.05;;
68479;SDS011;55469;48.934;12.050;2023-04-03T05:27:33;2.30;;;1.98;;
68479;SDS011;55469;48.934;12.050;2023-04-03T05:29:59;2.35;;;1.85;;
68479;SDS011;55469;48.934;12.050;2023-04-03T05:32:26;2.65;;;1.90;;
68479;SDS011;55469;48.934;12.050;2023-04-03T05:34:52;3.42;;;2.22;;
68479;SDS011;55469;48.934;12.050;2023-04-03T05:37:19;2.20;;;1.95;;
68479;SDS011;55469;48.934;12.050;2023-04-03T05:39:45;2.40;;;1.90;;
68479;SDS011;55469;48.934;12.050;2023-04-03T05:42:11;2.63;;;1.90;;
68479;SDS011;55469;48.934;12.050;2023-04-03T05:44:37;2.35;;;1.90;;
68479;SDS011;55469;48.934;12.050;2023-04-03T05:47:03;2.15;;;1.95;;
68479;SDS011;55469;48.934;12.050;2023-04-03T05:49:30;2.47;;;1.83;;
68479;SDS011;55469;48.934;12.050;2023-04-03T05:51:56;2.47;;;2.00;;
68479;SDS011;55469;48.934;12.050;2023-04-03T05:54:23;2.47;;;1.90;;
68479;SDS011;55469;48.934;12.050;2023-04-03T05:56:51;2.25;;;2.00;;
68479;SDS011;55469;48.934;12.050;2023-04-03T05:59:18;1.98;;;1.77;;
68479;SDS011;55469;48.934;12.050;2023-04-03T06:01:45;2.30;;;2.10;;
68479;SDS011;55469;48.934;12.050;2023-04-03T06:04:11;2.03;;;1.70;;
68479;SDS011;55469;48.934;12.050;2023-04-03T06:06:44;3.22;;;2.17;;
68479;SDS011;55469;48.934;12.050;2023-04-03T06:09:13;2.35;;;2.10;;
68479;SDS011;55469;48.934;12.050;2023-04-03T06:11:40;2.47;;;2.15;;
68479;SDS011;55469;48.934;12.050;2023-04-03T06:14:06;2.30;;;2.08;;
68479;SDS011;55469;48.934;12.050;2023-04-03T06:16:33;2.83;;;2.45;;
68479;SDS011;55469;48.934;12.050;2023-04-03T06:18:59;5.28;;;2.60;;
68479;SDS011;55469;48.934;12.050;2023-04-03T06:21:25;4.60;;;2.92;;
68479;SDS011;55469;48.934;12.050;2023-04-03T06:23:51;6.95;;;2.53;;
68479;SDS011;55469;48.934;12.050;2023-04-03T06:26:17;6.00;;;2.70;;
68479;SDS011;55469;48.934;12.050;2023-04-03T06:28:42;4.35;;;2.70;;
68479;SDS011;55469;48.934;12.050;2023-04-03T06:31:08;4.13;;;2.65;;
68479;SDS011;55469;48.934;12.050;2023-04-03T06:33:34;9.38;;;2.60;;
68479;SDS011;55469;48.934;12.050;2023-04-03T06:36:03;5.35;;;2.35;;
68479;SDS011;55469;48.934;12.050;2023-04-03T06:38:30;9.57;;;2.63;;
68479;SDS011;55469;48.934;12.050;2023-04-03T06:40:59;5.85;;;2.15;;
68479;SDS011;55469;48.934;12.050;2023-04-03T06:43:25;9.95;;;2.88;;
68479;SDS011;55469;48.934;12.050;2023-04-03T06:45:51;8.25;;;2.60;;
68479;SDS011;55469;48.934;12.050;2023-04-03T06:48:17;8.10;;;2.50;;
68479;SDS011;55469;48.934;12.050;2023-04-03T06:50:43;11.77;;;3.00;;
68479;SDS011;55469;48.934;12.050;2023-04-03T06:53:09;8.43;;;2.60;;
68479;SDS011;55469;48.934;12.050;2023-04-03T06:55:35;13.10;;;2.65;;
68479;SDS011;55469;48.934;12.050;2023-04-03T06:58:02;27.38;;;3.47;;
68479;SDS011;55469;48.934;12.050;2023-04-03T07:00:28;11.40;;;3.00;;
68479;SDS011;55469;48.934;12.050;2023-04-03T07:02:55;15.60;;;2.60;;
68479;SDS011;55469;48.934;12.050;2023-04-03T07:05:22;8.32;;;2.70;;
68479;SDS011;55469;48.934;12.050;2023-04-03T07:07:49;11.00;;;2.58;;
68479;SDS011;55469;48.934;12.050;2023-04-03T07:10:16;11.27;;;2.40;;
68479;SDS011;55469;48.934;12.050;2023-04-03T07:12:42;10.18;;;2.28;;
68479;SDS011;55469;48.934;12.050;2023-04-03T07:15:08;10.88;;;2.60;;
68479;SDS011;55469;48.934;12.050;2023-04-03T07:17:35;14.85;;;2.75;;
68479;SDS011;55469;48.934;12.050;2023-04-03T07:20:02;10.60;;;2.58;;
68479;SDS011;55469;48.934;12.050;2023-04-03T07:22:28;7.75;;;2.40;;
68479;SDS011;55469;48.934;12.050;2023-04-03T07:24:54;11.00;;;2.40;;
68479;SDS011;55469;48.934;12.050;2023-04-03T07:27:20;12.05;;;2.53;;
68479;SDS011;55469;48.934;12.050;2023-04-03T07:29:46;8.93;;;2.35;;
68479;SDS011;55469;48.934;12.050;2023-04-03T07:32:14;7.55;;;2.33;;
68479;SDS011;55469;48.934;12.050;2023-04-03T07:34:40;7.63;;;1.90;;
68479;SDS011;55469;48.934;12.050;2023-04-03T07:37:06;13.43;;;2.47;;
68479;SDS011;55469;48.934;12.050;2023-04-03T07:39:33;7.43;;;2.08;;
68479;SDS011;55469;48.934;12.050;2023-04-03T07:41:59;7.00;;;1.90;;
68479;SDS011;55469;48.934;12.050;2023-04-03T07:44:26;7.00;;;1.80;;
68479;SDS011;55469;48.934;12.050;2023-04-03T07:46:53;6.40;;;2.03;;
68479;SDS011;55469;48.934;12.050;2023-04-03T07:49:22;7.90;;;1.92;;
68479;SDS011;55469;48.934;12.050;2023-04-03T07:51:49;7.68;;;2.10;;
68479;SDS011;55469;48.934;12.050;2023-04-03T07:54:15;4.90;;;2.08;;
68479;SDS011;55469;48.934;12.050;2023-04-03T07:56:41;6.32;;;1.90;;
68479;SDS011;55469;48.934;12.050;2023-04-03T07:59:08;5.60;;;2.30;;
68479;SDS011;55469;48.934;12.050;2023-04-03T08:01:35;5.15;;;1.98;;
68479;SDS011;55469;48.934;12.050;2023-04-03T08:04:01;4.72;;;1.90;;
68479;SDS011;55469;48.934;12.050;2023-04-03T08:06:27;4.85;;;2.25;;
68479;SDS011;55469;48.934;12.050;2023-04-03T08:08:54;5.97;;;2.17;;
68479;SDS011;55469;48.934;12.050;2023-04-03T08:11:21;5.95;;;1.83;;
68479;SDS011;55469;48.934;12.050;2023-04-03T08:13:47;5.70;;;1.90;;
68479;SDS011;55469;48.934;12.050;2023-04-03T08:16:16;4.15;;;1.98;;
68479;SDS011;55469;48.934;12.050;2023-04-03T08:18:45;3.92;;;1.65;;
68479;SDS011;55469;48.934;12.050;2023-04-03T08:21:11;4.97;;;1.90;;
68479;SDS011;55469;48.934;12.050;2023-04-03T08:23:38;3.10;;;1.67;;
68479;SDS011;55469;48.934;12.050;2023-04-03T08:26:10;6.40;;;1.85;;
68479;SDS011;55469;48.934;12.050;2023-04-03T08:28:39;4.20;;;2.00;;
68479;SDS011;55469;48.934;12.050;2023-04-03T08:31:06;4.45;;;1.83;;
68479;SDS011;55469;48.934;12.050;2023-04-03T08:33:36;2.85;;;1.70;;
68479;SDS011;55469;48.934;12.050;2023-04-03T08:36:04;2.55;;;1.63;;
68479;SDS011;55469;48.934;12.050;2023-04-03T08:38:33;3.33;;;1.67;;
68479;SDS011;55469;48.934;12.050;2023-04-03T08:41:16;4.85;;;1.70;;
68479;SDS011;55469;48.934;12.050;2023-04-03T08:49:42;2.50;;;1.50;;
68479;SDS011;55469;48.934;12.050;2023-04-03T08:52:31;3.17;;;1.50;;
68479;SDS011;55469;48.934;12.050;2023-04-03T08:55:54;5.63;;;1.60;;
68479;SDS011;55469;48.934;12.050;2023-04-03T08:58:21;3.05;;;1.38;;
68479;SDS011;55469;48.934;12.050;2023-04-03T09:00:58;3.20;;;1.45;;
68479;SDS011;55469;48.934;12.050;2023-04-03T09:03:29;2.67;;;1.48;;
68479;SDS011;55469;48.934;12.050;2023-04-03T09:08:43;2.70;;;1.50;;
68479;SDS011;55469;48.934;12.050;2023-04-03T09:11:47;4.28;;;1.60;;
68479;SDS011;55469;48.934;12.050;2023-04-03T09:20:45;1.42;;;1.30;;
68479;SDS011;55469;48.934;12.050;2023-04-03T09:23:28;2.05;;;1.27;;
68479;SDS011;55469;48.934;12.050;2023-04-03T09:26:00;1.85;;;1.50;;
68479;SDS011;55469;48.934;12.050;2023-04-03T09:28:31;1.50;;;1.40;;
68479;SDS011;55469;48.934;12.050;2023-04-03T09:31:05;3.88;;;1.33;;
68479;SDS011;55469;48.934;12.050;2023-04-03T09:33:45;3.42;;;1.55;;
68479;SDS011;55469;48.934;12.050;2023-04-03T09:36:14;2.13;;;1.42;;
68479;SDS011;55469;48.934;12.050;2023-04-03T09:42:20;1.67;;;1.30;;
68479;SDS011;55469;48.934;12.050;2023-04-03T09:47:27;2.42;;;1.33;;
68479;SDS011;55469;48.934;12.050;2023-04-03T09:50:08;1.70;;;1.10;;
68479;SDS011;55469;48.934;12.050;2023-04-03T09:52:46;1.42;;;1.10;;
68479;SDS011;55469;48.934;12.050;2023-04-03T09:57:52;2.33;;;1.20;;
68479;SDS011;55469;48.934;12.050;2023-04-03T10:00:58;1.98;;;1.00;;
68479;SDS011;55469;48.934;12.050;2023-04-03T10:03:28;2.67;;;1.10;;
68479;SDS011;55469;48.934;12.050;2023-04-03T10:05:59;4.10;;;1.20;;
68479;SDS011;55469;48.934;12.050;2023-04-03T10:08:27;3.95;;;1.30;;
68479;SDS011;55469;48.934;12.050;2023-04-03T10:11:06;2.37;;;1.33;;
68479;SDS011;55469;48.934;12.050;2023-04-03T10:13:55;1.10;;;1.02;;
68479;SDS011;55469;48.934;12.050;2023-04-03T10:19:46;2.28;;;1.10;;
68479;SDS011;55469;48.934;12.050;2023-04-03T10:25:40;1.17;;;1.00;;
68479;SDS011;55469;48.934;12.050;2023-04-03T10:28:31;2.60;;;1.00;;
68479;SDS011;55469;48.934;12.050;2023-04-03T10:31:17;1.67;;;1.10;;
68479;SDS011;55469;48.934;12.050;2023-04-03T10:34:08;2.38;;;1.02;;
68479;SDS011;55469;48.934;12.050;2023-04-03T10:39:51;1.75;;;0.93;;
68479;SDS011;55469;48.934;12.050;2023-04-03T10:42:49;1.85;;;1.10;;
68479;SDS011;55469;48.934;12.050;2023-04-03T10:51:25;2.75;;;1.20;;
68479;SDS011;55469;48.934;12.050;2023-04-03T10:57:11;1.77;;;1.00;;
68479;SDS011;55469;48.934;12.050;2023-04-03T10:59:38;2.30;;;0.70;;
68479;SDS011;55469;48.934;12.050;2023-04-03T11:04:55;1.25;;;0.90;;
68479;SDS011;55469;48.934;12.050;2023-04-03T11:07:32;2.10;;;1.08;;
68479;SDS011;55469;48.934;12.050;2023-04-03T11:10:08;1.10;;;0.80;;
68479;SDS011;55469;48.934;12.050;2023-04-03T11:12:56;1.33;;;0.90;;
68479;SDS011;55469;48.934;12.050;2023-04-03T11:15:33;1.92;;;1.00;;
68479;SDS011;55469;48.934;12.050;2023-04-03T11:18:04;1.52;;;0.90;;
68479;SDS011;55469;48.934;12.050;2023-04-03T11:20:38;1.40;;;0.90;;
68479;SDS011;55469;48.934;12.050;2023-04-03T11:23:24;2.35;;;0.98;;
68479;SDS011;55469;48.934;12.050;2023-04-03T11:25:54;1.65;;;0.90;;
68479;SDS011;55469;48.934;12.050;2023-04-03T11:28:30;1.02;;;0.77;;
68479;SDS011;55469;48.934;12.050;2023-04-03T11:31:09;1.40;;;0.90;;
68479;SDS011;55469;48.934;12.050;2023-04-03T11:36:28;1.30;;;0.80;;
68479;SDS011;55469;48.934;12.050;2023-04-03T11:38:58;1.27;;;0.80;;
68479;SDS011;55469;48.934;12.050;2023-04-03T11:41:35;1.63;;;1.00;;
68479;SDS011;55469;48.934;12.050;2023-04-03T11:44:02;1.85;;;0.90;;
68479;SDS011;55469;48.934;12.050;2023-04-03T12:16:22;0.90;;;0.85;;
68479;SDS011;55469;48.934;12.050;2023-04-03T12:23:58;1.75;;;0.90;;
68479;SDS011;55469;48.934;12.050;2023-04-03T12:26:31;1.50;;;0.80;;
68479;SDS011;55469;48.934;12.050;2023-04-03T12:29:13;0.70;;;0.50;;
68479;SDS011;55469;48.934;12.050;2023-04-03T12:44:40;1.77;;;0.75;;
68479;SDS011;55469;48.934;12.050;2023-04-03T12:47:22;1.02;;;0.90;;
68479;SDS011;55469;48.934;12.050;2023-04-03T12:49:53;1.38;;;0.80;;
68479;SDS011;55469;48.934;12.050;2023-04-03T12:52:55;1.42;;;0.77;;
68479;SDS011;55469;48.934;12.050;2023-04-03T12:55:19;1.70;;;0.73;;
68479;SDS011;55469;48.934;12.050;2023-04-03T12:57:45;1.33;;;0.80;;
68479;SDS011;55469;48.934;12.050;2023-04-03T13:00:28;1.83;;;0.90;;
68479;SDS011;55469;48.934;12.050;2023-04-03T13:03:03;1.00;;;0.70;;
68479;SDS011;55469;48.934;12.050;2023-04-03T13:05:32;1.30;;;0.80;;
68479;SDS011;55469;48.934;12.050;2023-04-03T13:08:03;2.00;;;1.00;;
68479;SDS011;55469;48.934;12.050;2023-04-03T13:10:41;1.60;;;0.90;;
68479;SDS011;55469;48.934;12.050;2023-04-03T13:13:24;1.15;;;0.93;;
68479;SDS011;55469;48.934;12.050;2023-04-03T13:15:53;1.05;;;0.95;;
68479;SDS011;55469;48.934;12.050;2023-04-03T13:18:33;0.60;;;0.57;;
68479;SDS011;55469;48.934;12.050;2023-04-03T13:21:01;0.95;;;0.90;;
68479;SDS011;55469;48.934;12.050;2023-04-03T13:23:41;0.70;;;0.70;;
68479;SDS011;55469;48.934;12.050;2023-04-03T13:26:11;0.75;;;0.75;;
68479;SDS011;55469;48.934;12.050;2023-04-03T13:28:39;0.95;;;0.90;;
68479;SDS011;55469;48.934;12.050;2023-04-03T13:33:38;1.73;;;0.95;;
68479;SDS011;55469;48.934;12.050;2023-04-03T13:36:31;1.25;;;0.93;;
68479;SDS011;55469;48.934;12.050;2023-04-03T13:44:28;2.55;;;1.08;;
68479;SDS011;55469;48.934;12.050;2023-04-03T13:46:59;0.90;;;0.80;;
68479;SDS011;55469;48.934;12.050;2023-04-03T13:49:45;1.45;;;0.73;;
68479;SDS011;55469;48.934;12.050;2023-04-03T13:53:00;1.13;;;0.88;;
68479;SDS011;55469;48.934;12.050;2023-04-03T13:55:53;1.35;;;0.90;;
68479;SDS011;55469;48.934;12.050;2023-04-03T13:58:56;1.80;;;0.90;;
68479;SDS011;55469;48.934;12.050;2023-04-03T14:04:16;0.85;;;0.70;;
68479;SDS011;55469;48.934;12.050;2023-04-03T14:06:51;0.73;;;0.73;;
68479;SDS011;55469;48.934;12.050;2023-04-03T14:09:18;1.55;;;0.70;;
68479;SDS011;55469;48.934;12.050;2023-04-03T14:11:46;1.55;;;0.85;;
68479;SDS011;55469;48.934;12.050;2023-04-03T14:14:17;0.95;;;0.80;;
68479;SDS011;55469;48.934;12.050;2023-04-03T14:16:53;1.60;;;0.80;;
68479;SDS011;55469;48.934;12.050;2023-04-03T14:19:23;1.20;;;0.90;;
68479;SDS011;55469;48.934;12.050;2023-04-03T14:22:00;0.90;;;0.77;;
68479;SDS011;55469;48.934;12.050;2023-04-03T14:24:38;1.35;;;1.00;;
68479;SDS011;55469;48.934;12.050;2023-04-03T14:27:05;0.93;;;0.90;;
68479;SDS011;55469;48.934;12.050;2023-04-03T14:29:46;1.27;;;0.70;;
68479;SDS011;55469;48.934;12.050;2023-04-03T14:32:15;1.10;;;0.63;;
68479;SDS011;55469;48.934;12.050;2023-04-03T14:34:44;1.27;;;0.90;;
68479;SDS011;55469;48.934;12.050;2023-04-03T14:37:16;1.45;;;0.70;;
68479;SDS011;55469;48.934;12.050;2023-04-03T14:39:46;1.20;;;1.02;;
68479;SDS011;55469;48.934;12.050;2023-04-03T14:42:22;1.23;;;0.88;;
68479;SDS011;55469;48.934;12.050;2023-04-03T14:44:52;1.05;;;0.82;;
68479;SDS011;55469;48.934;12.050;2023-04-03T14:47:19;1.17;;;0.90;;
68479;SDS011;55469;48.934;12.050;2023-04-03T14:49:48;2.70;;;0.88;;
68479;SDS011;55469;48.934;12.050;2023-04-03T14:52:47;0.77;;;0.70;;
68479;SDS011;55469;48.934;12.050;2023-04-03T14:55:06;0.90;;;0.90;;
68479;SDS011;55469;48.934;12.050;2023-04-03T14:57:32;0.85;;;0.70;;
68479;SDS011;55469;48.934;12.050;2023-04-03T14:59:58;0.93;;;0.70;;
68479;SDS011;55469;48.934;12.050;2023-04-03T15:02:27;1.50;;;0.90;;
68479;SDS011;55469;48.934;12.050;2023-04-03T15:04:56;1.00;;;0.90;;
68479;SDS011;55469;48.934;12.050;2023-04-03T15:07:23;0.80;;;0.70;;
68479;SDS011;55469;48.934;12.050;2023-04-03T15:09:52;1.77;;;0.90;;
68479;SDS011;55469;48.934;12.050;2023-04-03T15:12:21;0.88;;;0.70;;
68479;SDS011;55469;48.934;12.050;2023-04-03T15:14:47;1.20;;;0.80;;
68479;SDS011;55469;48.934;12.050;2023-04-03T15:17:15;1.15;;;0.80;;
68479;SDS011;55469;48.934;12.050;2023-04-03T15:19:43;1.13;;;0.90;;
68479;SDS011;55469;48.934;12.050;2023-04-03T15:22:16;0.98;;;0.80;;
68479;SDS011;55469;48.934;12.050;2023-04-03T15:24:44;1.70;;;0.85;;
68479;SDS011;55469;48.934;12.050;2023-04-03T15:27:10;1.17;;;0.68;;
68479;SDS011;55469;48.934;12.050;2023-04-03T15:29:38;0.98;;;0.80;;
68479;SDS011;55469;48.934;12.050;2023-04-03T15:32:05;1.20;;;0.93;;
68479;SDS011;55469;48.934;12.050;2023-04-03T15:34:31;1.60;;;0.80;;
68479;SDS011;55469;48.934;12.050;2023-04-03T15:36:57;1.17;;;0.80;;
68479;SDS011;55469;48.934;12.050;2023-04-03T15:39:24;1.23;;;0.90;;
68479;SDS011;55469;48.934;12.050;2023-04-03T15:41:51;0.70;;;0.70;;
68479;SDS011;55469;48.934;12.050;2023-04-03T15:44:17;1.63;;;0.90;;
68479;SDS011;55469;48.934;12.050;2023-04-03T15:46:44;0.80;;;0.80;;
68479;SDS011;55469;48.934;12.050;2023-04-03T15:49:11;0.80;;;0.70;;
68479;SDS011;55469;48.934;12.050;2023-04-03T15:51:37;0.82;;;0.70;;
68479;SDS011;55469;48.934;12.050;2023-04-03T15:54:04;0.95;;;0.80;;
68479;SDS011;55469;48.934;12.050;2023-04-03T15:56:29;1.45;;;0.80;;
68479;SDS011;55469;48.934;12.050;2023-04-03T15:58:55;1.70;;;0.80;;
68479;SDS011;55469;48.934;12.050;2023-04-03T16:01:21;0.95;;;0.88;;
68479;SDS011;55469;48.934;12.050;2023-04-03T16:03:47;0.98;;;0.80;;
68479;SDS011;55469;48.934;12.050;2023-04-03T16:06:13;1.42;;;0.85;;
68479;SDS011;55469;48.934;12.050;2023-04-03T16:08:41;1.02;;;0.90;;
68479;SDS011;55469;48.934;12.050;2023-04-03T16:11:07;0.80;;;0.80;;
68479;SDS011;55469;48.934;12.050;2023-04-03T16:13:34;1.00;;;0.82;;
68479;SDS011;55469;48.934;12.050;2023-04-03T16:15:59;0.82;;;0.73;;
68479;SDS011;55469;48.934;12.050;2023-04-03T16:18:27;1.02;;;0.75;;
68479;SDS011;55469;48.934;12.050;2023-04-03T16:20:53;0.98;;;0.90;;
68479;SDS011;55469;48.934;12.050;2023-04-03T16:23:19;1.40;;;0.90;;
68479;SDS011;55469;48.934;12.050;2023-04-03T16:25:46;1.20;;;0.90;;
68479;SDS011;55469;48.934;12.050;2023-04-03T16:28:13;1.42;;;0.70;;
68479;SDS011;55469;48.934;12.050;2023-04-03T16:30:40;0.98;;;0.80;;
68479;SDS011;55469;48.934;12.050;2023-04-03T16:33:06;1.00;;;0.90;;
68479;SDS011;55469;48.934;12.050;2023-04-03T16:35:34;1.05;;;0.93;;
68479;SDS011;55469;48.934;12.050;2023-04-03T16:38:00;0.60;;;0.60;;
68479;SDS011;55469;48.934;12.050;2023-04-03T16:40:25;1.13;;;0.80;;
68479;SDS011;55469;48.934;12.050;2023-04-03T16:42:51;1.15;;;0.70;;
68479;SDS011;55469;48.934;12.050;2023-04-03T16:45:17;0.95;;;0.93;;